PTR2217 CYKF-CYXU
Flight info
| Callsign | PTR2217 |
|---|---|
| Flight time | N/A |
| Altitude | 2000 |
| Route | CYKF/26 VFR SOUTH |
| Aircraft | DH8D |
Departure
| Time | 2026-05-04 00:01 |
|---|---|
| Airport | Region of Waterloo International Airport (CYKF) |
Arrival
| Time | N/A |
|---|---|
| Airport | London International Airport (CYXU) |
| Time | Latitude | Longitude | Altitude | Speed | Heading |
|---|---|---|---|---|---|
| 2026-05-04 00:01 | 43.37056 | -80.52825 | 4983 ft | 237 kts | 226° |
| 2026-05-04 00:01 | 43.35816 | -80.54291 | 4974 ft | 228 kts | 226° |
| 2026-05-04 00:01 | 43.34644 | -80.55652 | 4960 ft | 212 kts | 226° |
| 2026-05-04 00:01 | 43.33552 | -80.56911 | 4954 ft | 199 kts | 226° |
| 2026-05-04 00:02 | 43.32515 | -80.58099 | 4956 ft | 189 kts | 226° |
| 2026-05-04 00:02 | 43.31533 | -80.59219 | 4963 ft | 180 kts | 226° |
| 2026-05-04 00:02 | 43.30584 | -80.60284 | 4963 ft | 172 kts | 226° |
| 2026-05-04 00:02 | 43.29672 | -80.61295 | 4971 ft | 165 kts | 226° |
| 2026-05-04 00:03 | 43.28795 | -80.62257 | 4977 ft | 159 kts | 226° |
| 2026-05-04 00:03 | 43.27931 | -80.63193 | 4981 ft | 154 kts | 226° |
| 2026-05-04 00:03 | 43.27117 | -80.64104 | 4984 ft | 147 kts | 229° |
| 2026-05-04 00:03 | 43.26374 | -80.65110 | 5004 ft | 155 kts | 232° |
| 2026-05-04 00:04 | 43.25604 | -80.66223 | 5009 ft | 166 kts | 232° |
| 2026-05-04 00:04 | 43.24777 | -80.67406 | 5015 ft | 176 kts | 231° |
| 2026-05-04 00:04 | 43.23912 | -80.68625 | 5001 ft | 183 kts | 231° |
| 2026-05-04 00:04 | 43.23018 | -80.69882 | 4976 ft | 182 kts | 231° |
| 2026-05-04 00:05 | 43.22134 | -80.71111 | 4979 ft | 180 kts | 229° |
| 2026-05-04 00:05 | 43.21263 | -80.72315 | 4622 ft | 178 kts | 230° |
| 2026-05-04 00:05 | 43.20389 | -80.73518 | 4067 ft | 180 kts | 231° |
| 2026-05-04 00:05 | 43.19514 | -80.74734 | 3503 ft | 181 kts | 229° |
| 2026-05-04 00:06 | 43.18660 | -80.75922 | 3179 ft | 172 kts | 230° |
| 2026-05-04 00:06 | 43.17771 | -80.77182 | 3073 ft | 192 kts | 230° |
| 2026-05-04 00:06 | 43.16843 | -80.78496 | 3015 ft | 194 kts | 229° |
| 2026-05-04 00:06 | 43.15894 | -80.79816 | 2992 ft | 190 kts | 229° |
| 2026-05-04 00:07 | 43.14969 | -80.81102 | 2976 ft | 187 kts | 229° |
| 2026-05-04 00:07 | 43.14070 | -80.82350 | 2973 ft | 183 kts | 229° |
| 2026-05-04 00:07 | 43.13183 | -80.83585 | 2979 ft | 185 kts | 229° |
| 2026-05-04 00:07 | 43.12264 | -80.84873 | 2980 ft | 193 kts | 229° |
| 2026-05-04 00:08 | 43.11342 | -80.86151 | 2969 ft | 183 kts | 229° |
| 2026-05-04 00:08 | 43.10467 | -80.87360 | 2968 ft | 174 kts | 229° |
| 2026-05-04 00:08 | 43.09629 | -80.88522 | 2980 ft | 175 kts | 229° |
| 2026-05-04 00:08 | 43.08728 | -80.89787 | 3001 ft | 196 kts | 229° |
| 2026-05-04 00:09 | 43.07753 | -80.91167 | 2990 ft | 201 kts | 230° |
| 2026-05-04 00:09 | 43.07055 | -80.92730 | 2946 ft | 188 kts | 252° |
| 2026-05-04 00:09 | 43.06811 | -80.94376 | 2829 ft | 171 kts | 258° |
| 2026-05-04 00:09 | 43.06625 | -80.95913 | 2782 ft | 153 kts | 258° |
| 2026-05-04 00:10 | 43.06426 | -80.97465 | 2554 ft | 180 kts | 258° |
| 2026-05-04 00:10 | 43.06194 | -80.99213 | 2291 ft | 191 kts | 258° |
| 2026-05-04 00:10 | 43.05958 | -81.01006 | 2099 ft | 191 kts | 258° |
| 2026-05-04 00:10 | 43.05711 | -81.02851 | 2103 ft | 201 kts | 258° |
| 2026-05-04 00:11 | 43.05463 | -81.04731 | 2077 ft | 197 kts | 258° |
| 2026-05-04 00:11 | 43.05207 | -81.06534 | 2066 ft | 188 kts | 257° |
| 2026-05-04 00:11 | 43.04971 | -81.08176 | 1792 ft | 173 kts | 257° |
| 2026-05-04 00:11 | 43.04741 | -81.09830 | 1560 ft | 183 kts | 256° |
| 2026-05-04 00:12 | 43.04493 | -81.11586 | 1328 ft | 190 kts | 257° |
| 2026-05-04 00:12 | 43.04262 | -81.13297 | 2147 ft | 183 kts | 257° |
| 2026-05-04 00:12 | 43.04047 | -81.14876 | 3068 ft | 168 kts | 258° |
| 2026-05-04 00:12 | 43.03873 | -81.16410 | 3856 ft | 162 kts | 259° |
| 2026-05-04 00:13 | 43.03709 | -81.17847 | 4465 ft | 152 kts | 259° |
| 2026-05-04 00:13 | 43.03439 | -81.19228 | 4759 ft | 153 kts | 243° |
| 2026-05-04 00:13 | 43.02566 | -81.20143 | 4899 ft | 173 kts | 205° |
| 2026-05-04 00:13 | 43.01276 | -81.20074 | 4965 ft | 205 kts | 170° |
| 2026-05-04 00:14 | 43.00019 | -81.18902 | 5004 ft | 231 kts | 143° |
| 2026-05-04 00:14 | 42.98960 | -81.17129 | 5012 ft | 251 kts | 126° |
| 2026-05-04 00:14 | 42.98146 | -81.14971 | 5014 ft | 262 kts | 121° |
| 2026-05-04 00:14 | 42.97622 | -81.12570 | 5016 ft | 272 kts | 103° |
| 2026-05-04 00:15 | 42.97316 | -81.09975 | 5014 ft | 278 kts | 102° |
| 2026-05-04 00:15 | 42.97001 | -81.07359 | 5010 ft | 282 kts | 102° |
| 2026-05-04 00:15 | 42.96683 | -81.04713 | 4999 ft | 281 kts | 102° |
| 2026-05-04 00:15 | 42.96376 | -81.02124 | 5014 ft | 277 kts | 102° |
| 2026-05-04 00:16 | 42.96073 | -80.99551 | 5006 ft | 273 kts | 102° |
| 2026-05-04 00:16 | 42.95768 | -80.97006 | 5001 ft | 270 kts | 103° |
| 2026-05-04 00:16 | 42.95666 | -80.94439 | 4985 ft | 271 kts | 81° |
| 2026-05-04 00:16 | 42.96251 | -80.92057 | 4996 ft | 261 kts | 66° |
| 2026-05-04 00:17 | 42.96942 | -80.89824 | 4997 ft | 256 kts | 65° |
| 2026-05-04 00:17 | 42.97655 | -80.87626 | 5003 ft | 252 kts | 64° |
| 2026-05-04 00:17 | 42.98385 | -80.85448 | 5008 ft | 250 kts | 63° |
| 2026-05-04 00:17 | 42.99113 | -80.83317 | 5004 ft | 248 kts | 62° |
| 2026-05-04 00:18 | 42.99852 | -80.81184 | 5003 ft | 246 kts | 62° |
| 2026-05-04 00:18 | 43.00591 | -80.79076 | 4998 ft | 245 kts | 62° |
| 2026-05-04 00:18 | 43.01327 | -80.76993 | 4990 ft | 244 kts | 62° |
| 2026-05-04 00:18 | 43.02068 | -80.74906 | 4992 ft | 242 kts | 62° |
| 2026-05-04 00:19 | 43.02799 | -80.72857 | 4987 ft | 242 kts | 62° |
| 2026-05-04 00:19 | 43.03535 | -80.70801 | 4989 ft | 241 kts | 62° |
| 2026-05-04 00:19 | 43.04271 | -80.68745 | 4990 ft | 240 kts | 61° |
| 2026-05-04 00:19 | 43.05002 | -80.66706 | 4986 ft | 240 kts | 61° |
| 2026-05-04 00:20 | 43.05736 | -80.64660 | 4983 ft | 239 kts | 61° |
| 2026-05-04 00:20 | 43.06469 | -80.62619 | 4980 ft | 238 kts | 61° |
| 2026-05-04 00:20 | 43.07201 | -80.60582 | 4979 ft | 238 kts | 61° |
| 2026-05-04 00:20 | 43.07932 | -80.58543 | 4978 ft | 238 kts | 61° |
| 2026-05-04 00:21 | 43.08663 | -80.56506 | 4978 ft | 238 kts | 61° |
| 2026-05-04 00:21 | 43.09383 | -80.54498 | 4976 ft | 238 kts | 61° |
| 2026-05-04 00:21 | 43.10137 | -80.52392 | 4993 ft | 258 kts | 61° |
| 2026-05-04 00:21 | 43.10960 | -80.50085 | 4994 ft | 278 kts | 62° |
| 2026-05-04 00:22 | 43.11834 | -80.47636 | 4992 ft | 288 kts | 62° |
| 2026-05-04 00:22 | 43.12700 | -80.45205 | 4977 ft | 280 kts | 62° |
| 2026-05-04 00:22 | 43.13523 | -80.42892 | 4969 ft | 265 kts | 61° |
| 2026-05-04 00:22 | 43.14312 | -80.40684 | 4635 ft | 254 kts | 61° |
| 2026-05-04 00:23 | 43.15088 | -80.38522 | 4074 ft | 254 kts | 61° |
| 2026-05-04 00:23 | 43.15866 | -80.36350 | 3497 ft | 253 kts | 62° |
| 2026-05-04 00:23 | 43.16631 | -80.34207 | 2928 ft | 251 kts | 63° |
| 2026-05-04 00:23 | 43.17402 | -80.32043 | 2650 ft | 255 kts | 63° |
| 2026-05-04 00:24 | 43.18171 | -80.29871 | 2543 ft | 254 kts | 63° |
| 2026-05-04 00:24 | 43.18933 | -80.27724 | 2502 ft | 252 kts | 64° |
| 2026-05-04 00:24 | 43.19720 | -80.25500 | 2495 ft | 262 kts | 64° |
| 2026-05-04 00:24 | 43.20519 | -80.23242 | 2495 ft | 270 kts | 64° |
| 2026-05-04 00:25 | 43.21324 | -80.20965 | 2474 ft | 258 kts | 64° |
| 2026-05-04 00:25 | 43.22114 | -80.18737 | 2486 ft | 264 kts | 64° |
| 2026-05-04 00:25 | 43.22928 | -80.16428 | 2493 ft | 274 kts | 64° |
| 2026-05-04 00:25 | 43.23763 | -80.14059 | 2492 ft | 275 kts | 64° |
| 2026-05-04 00:26 | 43.24587 | -80.11725 | 2491 ft | 272 kts | 64° |
| 2026-05-04 00:26 | 43.25401 | -80.09415 | 2492 ft | 271 kts | 64° |
| 2026-05-04 00:26 | 43.26203 | -80.07147 | 2476 ft | 252 kts | 64° |
| 2026-05-04 00:26 | 43.26974 | -80.04965 | 2486 ft | 257 kts | 64° |
| 2026-05-04 00:27 | 43.27744 | -80.02773 | 2491 ft | 256 kts | 64° |
| 2026-05-04 00:27 | 43.28518 | -80.00572 | 2488 ft | 254 kts | 64° |
| 2026-05-04 00:27 | 43.29275 | -79.98421 | 2494 ft | 253 kts | 64° |
| 2026-05-04 00:27 | 43.30043 | -79.96240 | 2488 ft | 254 kts | 64° |
| 2026-05-04 00:28 | 43.30813 | -79.94052 | 2484 ft | 254 kts | 64° |
| 2026-05-04 00:28 | 43.31583 | -79.91859 | 2491 ft | 254 kts | 64° |
| 2026-05-04 00:28 | 43.32334 | -79.89725 | 2485 ft | 248 kts | 64° |
| 2026-05-04 00:28 | 43.33075 | -79.87616 | 2486 ft | 243 kts | 64° |
| 2026-05-04 00:29 | 43.33798 | -79.85552 | 2478 ft | 228 kts | 63° |
| 2026-05-04 00:29 | 43.34364 | -79.83684 | 2456 ft | 200 kts | 82° |
| 2026-05-04 00:29 | 43.34098 | -79.81960 | 2474 ft | 177 kts | 134° |
| 2026-05-04 00:29 | 43.33217 | -79.80618 | 2523 ft | 212 kts | 143° |
| 2026-05-04 00:30 | 43.32070 | -79.79117 | 2514 ft | 232 kts | 143° |
| 2026-05-04 00:30 | 43.30967 | -79.77656 | 2487 ft | 210 kts | 143° |
| 2026-05-04 00:30 | 43.29910 | -79.76343 | 2491 ft | 196 kts | 153° |
| 2026-05-04 00:30 | 43.28741 | -79.75970 | 2507 ft | 163 kts | 201° |
| 2026-05-04 00:31 | 43.27864 | -79.76730 | 2504 ft | 141 kts | 227° |
| 2026-05-04 00:31 | 43.27191 | -79.77584 | 2382 ft | 119 kts | 228° |
| 2026-05-04 00:31 | 43.26566 | -79.78429 | 2282 ft | 134 kts | 229° |
| 2026-05-04 00:31 | 43.25895 | -79.79395 | 2282 ft | 142 kts | 230° |
| 2026-05-04 00:32 | 43.25231 | -79.80365 | 2270 ft | 139 kts | 230° |
| 2026-05-04 00:32 | 43.24585 | -79.81321 | 2260 ft | 135 kts | 230° |
| 2026-05-04 00:32 | 43.23954 | -79.82272 | 2268 ft | 141 kts | 231° |
| 2026-05-04 00:32 | 43.23250 | -79.83356 | 2281 ft | 162 kts | 231° |
| 2026-05-04 00:33 | 43.22461 | -79.84581 | 2150 ft | 178 kts | 230° |
| 2026-05-04 00:33 | 43.20841 | -79.87079 | 1679 ft | 168 kts | 229° |
| 2026-05-04 00:33 | 43.20071 | -79.88264 | 1451 ft | 162 kts | 229° |
| 2026-05-04 00:34 | 43.19336 | -79.89396 | 1240 ft | 154 kts | 228° |
| 2026-05-04 00:34 | 43.18671 | -79.90416 | 1041 ft | 133 kts | 228° |
| 2026-05-04 00:34 | 43.17994 | -79.91466 | 940 ft | 173 kts | 229° |
| 2026-05-04 00:34 | 43.17208 | -79.92716 | 1872 ft | 177 kts | 231° |
| 2026-05-04 00:35 | 43.16396 | -79.93996 | 2874 ft | 188 kts | 232° |
| 2026-05-04 00:35 | 43.15532 | -79.95345 | 3964 ft | 197 kts | 233° |
| 2026-05-04 00:35 | 43.14614 | -79.96786 | 4668 ft | 217 kts | 233° |
| 2026-05-04 00:35 | 43.13560 | -79.98443 | 4922 ft | 237 kts | 233° |
| 2026-05-04 00:36 | 43.12495 | -80.00078 | 4962 ft | 216 kts | 232° |
| 2026-05-04 00:36 | 43.11536 | -80.01530 | 4980 ft | 199 kts | 233° |
| 2026-05-04 00:36 | 43.10470 | -80.02676 | 4982 ft | 193 kts | 209° |
| 2026-05-04 00:36 | 43.09133 | -80.02773 | 4989 ft | 201 kts | 175° |
| 2026-05-04 00:37 | 43.07913 | -80.01705 | 5009 ft | 228 kts | 139° |
| 2026-05-04 00:37 | 43.07001 | -79.99773 | 5020 ft | 259 kts | 125° |
| 2026-05-04 00:37 | 43.06455 | -79.97300 | 5019 ft | 284 kts | 94° |
| 2026-05-04 00:37 | 43.06943 | -79.94748 | 5007 ft | 279 kts | 57° |
| 2026-05-04 00:38 | 43.08143 | -79.92728 | 5000 ft | 271 kts | 42° |
| 2026-05-04 00:38 | 43.09484 | -79.90893 | 5003 ft | 268 kts | 38° |
| 2026-05-04 00:38 | 43.10836 | -79.89188 | 5016 ft | 264 kts | 36° |
| 2026-05-04 00:38 | 43.12227 | -79.87534 | 5008 ft | 262 kts | 34° |
| 2026-05-04 00:39 | 43.13611 | -79.85957 | 5009 ft | 261 kts | 33° |
| 2026-05-04 00:39 | 43.15021 | -79.84399 | 4999 ft | 260 kts | 32° |
| 2026-05-04 00:39 | 43.16444 | -79.82864 | 5003 ft | 259 kts | 31° |
| 2026-05-04 00:39 | 43.17857 | -79.81366 | 5010 ft | 258 kts | 31° |
| 2026-05-04 00:40 | 43.19294 | -79.79862 | 5010 ft | 257 kts | 31° |
| 2026-05-04 00:40 | 43.20713 | -79.78392 | 5009 ft | 258 kts | 30° |
| 2026-05-04 00:40 | 43.22153 | -79.76910 | 5010 ft | 257 kts | 30° |
| 2026-05-04 00:40 | 43.23576 | -79.75451 | 5003 ft | 256 kts | 30° |
| 2026-05-04 00:41 | 43.25001 | -79.73996 | 5003 ft | 255 kts | 30° |
| 2026-05-04 00:41 | 43.26434 | -79.72537 | 5008 ft | 255 kts | 30° |
| 2026-05-04 00:41 | 43.27855 | -79.71091 | 5012 ft | 255 kts | 30° |
| 2026-05-04 00:41 | 43.29282 | -79.69643 | 5005 ft | 255 kts | 30° |
| 2026-05-04 00:42 | 43.30692 | -79.68210 | 5006 ft | 254 kts | 30° |
| 2026-05-04 00:42 | 43.32127 | -79.66754 | 5004 ft | 255 kts | 30° |
| 2026-05-04 00:42 | 43.33558 | -79.65303 | 5003 ft | 258 kts | 30° |
| 2026-05-04 00:42 | 43.35022 | -79.63824 | 5012 ft | 268 kts | 30° |
| 2026-05-04 00:43 | 43.36564 | -79.62266 | 5004 ft | 275 kts | 30° |
| 2026-05-04 00:43 | 43.38107 | -79.60701 | 5000 ft | 279 kts | 30° |
| 2026-05-04 00:43 | 43.39672 | -79.59111 | 4999 ft | 282 kts | 30° |
| 2026-05-04 00:43 | 43.41276 | -79.57478 | 4992 ft | 285 kts | 30° |
| 2026-05-04 00:44 | 43.42851 | -79.55871 | 4988 ft | 280 kts | 30° |